Hay Lakes, Canada
Current Conditions -  °F | °C
As of 11:00 PM on Saturday 22 Nov 2014 (Local Time) from CYEG Reporting Station
Light Snow Light Snow  
Wind Chill:   Ceiling: 1400
Heat Index: 21°   Visibility: 10mi
Dew Point: 16°   Wind: 14mph
Humidity: 80%   Direction: 320°NW
Pressure: 29.65"   Gusts: 20mph
Location:  53.2°N, 113.05°W
Report Text: CYEG 230600Z 32012G17KT 10SM -SN DRSN BKN014 BKN025 OVC065 M06/M09 A2965 RMK SC5SC2SC1 /S01/ SLP078
Loading
Personal Weather Stations






























Interactive Weather Map New forecast layout! Learn more

10-Day Weather Forecast

Advertisements
Track Severe Weather on mobile